<?xml version="1.0" encoding="UTF-8" standalone="no" ?>
<gpx xmlns="http://www.topografix.com/GPX/1/1" xmlns:xsi="http://www.w3.org/2001/XMLSchema-instance" xsi:schemaLocation="http://www.topografix.com/GPX/1/1 http://www.topografix.com/GPX/1/1/gpx.xsd" version="1.1" creator="VisuGPX - https://www.visugpx.com">
  <metadata>
    <name>Col du Boulin - Chartreuse de la Verne - Vallon du Bousquet - COLLOBRIERES - 83</name>
    <desc><![CDATA[Départ sur la D214 au gué de la côte 308. Direction la Croix d\'Anselme, le Col du Boulin et descente difficile dans les rochers du vallon du Boulin ou on peut admirer plusieurs cascades. On rejoint ensuite la Verne. On remonte jusqu\'à la D214 puis on suit un sentier au nord de celle-ci pour rejoindre \"la Chartreuse\" magnifiquement restaurée. Retour par la piste de Ragusse, la plantation de cèdres et le vallon du Bousquet.]]></desc>
  </metadata>
  <trk>
    <name><![CDATA[18-NOV-12 16:26:02]]></name>
    <trkseg>
      <trkpt lat="43.23435" lon="6.36242">
        <ele>303.43</ele>
        <time>2012-11-18T08:50:04Z</time>
      </trkpt>
      <trkpt lat="43.23441" lon="6.36218">
        <ele>300.55</ele>
        <time>2012-11-18T08:50:30Z</time>
      </trkpt>
      <trkpt lat="43.23444" lon="6.36196">
        <ele>300.55</ele>
        <time>2012-11-18T08:50:44Z</time>
      </trkpt>
      <trkpt lat="43.2345" lon="6.36177">
        <ele>301.03</ele>
        <time>2012-11-18T08:50:59Z</time>
      </trkpt>
      <trkpt lat="43.23457" lon="6.36155">
        <ele>301.99</ele>
        <time>2012-11-18T08:51:23Z</time>
      </trkpt>
      <trkpt lat="43.23468" lon="6.36132">
        <ele>301.99</ele>
        <time>2012-11-18T08:51:42Z</time>
      </trkpt>
      <trkpt lat="43.23471" lon="6.36105">
        <ele>302.47</ele>
        <time>2012-11-18T08:52:07Z</time>
      </trkpt>
      <trkpt lat="43.2348" lon="6.36086">
        <ele>302.95</ele>
        <time>2012-11-18T08:52:24Z</time>
      </trkpt>
      <trkpt lat="43.23492" lon="6.3606">
        <ele>303.43</ele>
        <time>2012-11-18T08:52:46Z</time>
      </trkpt>
      <trkpt lat="43.23509" lon="6.36046">
        <ele>303.91</ele>
        <time>2012-11-18T08:53:01Z</time>
      </trkpt>
      <trkpt lat="43.23524" lon="6.36035">
        <ele>305.36</ele>
        <time>2012-11-18T08:53:21Z</time>
      </trkpt>
      <trkpt lat="43.23542" lon="6.36023">
        <ele>305.84</ele>
        <time>2012-11-18T08:53:41Z</time>
      </trkpt>
      <trkpt lat="43.23558" lon="6.36005">
        <ele>306.8</ele>
        <time>2012-11-18T08:54:05Z</time>
      </trkpt>
      <trkpt lat="43.23581" lon="6.36003">
        <ele>307.28</ele>
        <time>2012-11-18T08:54:24Z</time>
      </trkpt>
      <trkpt lat="43.23606" lon="6.36001">
        <ele>308.24</ele>
        <time>2012-11-18T08:54:45Z</time>
      </trkpt>
      <trkpt lat="43.23628" lon="6.35996">
        <ele>309.68</ele>
        <time>2012-11-18T08:55:04Z</time>
      </trkpt>
      <trkpt lat="43.23647" lon="6.35984">
        <ele>311.12</ele>
        <time>2012-11-18T08:55:22Z</time>
      </trkpt>
      <trkpt lat="43.23669" lon="6.35966">
        <ele>313.05</ele>
        <time>2012-11-18T08:55:41Z</time>
      </trkpt>
      <trkpt lat="43.23699" lon="6.35951">
        <ele>314.49</ele>
        <time>2012-11-18T08:55:57Z</time>
      </trkpt>
      <trkpt lat="43.23722" lon="6.35942">
        <ele>316.41</ele>
        <time>2012-11-18T08:56:25Z</time>
      </trkpt>
      <trkpt lat="43.23739" lon="6.3593">
        <ele>318.33</ele>
        <time>2012-11-18T08:56:46Z</time>
      </trkpt>
      <trkpt lat="43.23746" lon="6.359">
        <ele>319.78</ele>
        <time>2012-11-18T08:57:06Z</time>
      </trkpt>
      <trkpt lat="43.23757" lon="6.35878">
        <ele>321.7</ele>
        <time>2012-11-18T08:57:25Z</time>
      </trkpt>
      <trkpt lat="43.23765" lon="6.3585">
        <ele>323.62</ele>
        <time>2012-11-18T08:57:44Z</time>
      </trkpt>
      <trkpt lat="43.23772" lon="6.35821">
        <ele>325.54</ele>
        <time>2012-11-18T08:58:03Z</time>
      </trkpt>
      <trkpt lat="43.23771" lon="6.35784">
        <ele>327.47</ele>
        <time>2012-11-18T08:58:25Z</time>
      </trkpt>
      <trkpt lat="43.23781" lon="6.35758">
        <ele>328.91</ele>
        <time>2012-11-18T08:58:44Z</time>
      </trkpt>
      <trkpt lat="43.23791" lon="6.35737">
        <ele>330.35</ele>
        <time>2012-11-18T08:59:03Z</time>
      </trkpt>
      <trkpt lat="43.23808" lon="6.35728">
        <ele>331.31</ele>
        <time>2012-11-18T08:59:19Z</time>
      </trkpt>
      <trkpt lat="43.23815" lon="6.357">
        <ele>332.27</ele>
        <time>2012-11-18T08:59:35Z</time>
      </trkpt>
      <trkpt lat="43.23805" lon="6.3568">
        <ele>333.71</ele>
        <time>2012-11-18T08:59:54Z</time>
      </trkpt>
      <trkpt lat="43.23793" lon="6.35659">
        <ele>335.64</ele>
        <time>2012-11-18T09:00:11Z</time>
      </trkpt>
      <trkpt lat="43.23787" lon="6.35635">
        <ele>336.6</ele>
        <time>2012-11-18T09:00:28Z</time>
      </trkpt>
      <trkpt lat="43.23785" lon="6.35612">
        <ele>337.56</ele>
        <time>2012-11-18T09:00:43Z</time>
      </trkpt>
      <trkpt lat="43.23806" lon="6.35616">
        <ele>340.92</ele>
        <time>2012-11-18T09:01:04Z</time>
      </trkpt>
      <trkpt lat="43.23826" lon="6.35615">
        <ele>342.37</ele>
        <time>2012-11-18T09:01:21Z</time>
      </trkpt>
      <trkpt lat="43.23849" lon="6.35625">
        <ele>343.81</ele>
        <time>2012-11-18T09:01:42Z</time>
      </trkpt>
      <trkpt lat="43.23867" lon="6.35625">
        <ele>346.69</ele>
        <time>2012-11-18T09:02:03Z</time>
      </trkpt>
      <trkpt lat="43.23885" lon="6.3563">
        <ele>347.65</ele>
        <time>2012-11-18T09:02:25Z</time>
      </trkpt>
      <trkpt lat="43.23896" lon="6.35646">
        <ele>349.1</ele>
        <time>2012-11-18T09:02:45Z</time>
      </trkpt>
      <trkpt lat="43.23901" lon="6.35668">
        <ele>351.02</ele>
        <time>2012-11-18T09:03:29Z</time>
      </trkpt>
      <trkpt lat="43.23922" lon="6.35684">
        <ele>353.42</ele>
        <time>2012-11-18T09:03:56Z</time>
      </trkpt>
      <trkpt lat="43.23944" lon="6.35702">
        <ele>355.83</ele>
        <time>2012-11-18T09:04:36Z</time>
      </trkpt>
      <trkpt lat="43.23969" lon="6.35736">
        <ele>361.11</ele>
        <time>2012-11-18T09:05:34Z</time>
      </trkpt>
      <trkpt lat="43.23987" lon="6.35768">
        <ele>365.44</ele>
        <time>2012-11-18T09:06:12Z</time>
      </trkpt>
      <trkpt lat="43.23997" lon="6.35788">
        <ele>372.17</ele>
        <time>2012-11-18T09:07:00Z</time>
      </trkpt>
      <trkpt lat="43.24011" lon="6.35813">
        <ele>377.45</ele>
        <time>2012-11-18T09:07:40Z</time>
      </trkpt>
      <trkpt lat="43.24025" lon="6.35842">
        <ele>383.22</ele>
        <time>2012-11-18T09:08:27Z</time>
      </trkpt>
      <trkpt lat="43.24034" lon="6.35863">
        <ele>391.87</ele>
        <time>2012-11-18T09:09:23Z</time>
      </trkpt>
      <trkpt lat="43.24047" lon="6.35888">
        <ele>398.12</ele>
        <time>2012-11-18T09:09:58Z</time>
      </trkpt>
      <trkpt lat="43.24064" lon="6.35923">
        <ele>404.85</ele>
        <time>2012-11-18T09:10:35Z</time>
      </trkpt>
      <trkpt lat="43.24081" lon="6.35961">
        <ele>409.18</ele>
        <time>2012-11-18T09:11:14Z</time>
      </trkpt>
      <trkpt lat="43.24097" lon="6.35994">
        <ele>412.06</ele>
        <time>2012-11-18T09:11:45Z</time>
      </trkpt>
      <trkpt lat="43.24112" lon="6.36034">
        <ele>415.43</ele>
        <time>2012-11-18T09:12:18Z</time>
      </trkpt>
      <trkpt lat="43.24125" lon="6.36059">
        <ele>416.39</ele>
        <time>2012-11-18T09:12:53Z</time>
      </trkpt>
      <trkpt lat="43.24139" lon="6.36082">
        <ele>415.43</ele>
        <time>2012-11-18T09:13:26Z</time>
      </trkpt>
      <trkpt lat="43.24163" lon="6.36084">
        <ele>406.29</ele>
        <time>2012-11-18T09:14:21Z</time>
      </trkpt>
      <trkpt lat="43.24168" lon="6.36083">
        <ele>399.57</ele>
        <time>2012-11-18T09:14:56Z</time>
      </trkpt>
      <trkpt lat="43.24194" lon="6.36081">
        <ele>388.99</ele>
        <time>2012-11-18T09:15:47Z</time>
      </trkpt>
      <trkpt lat="43.24227" lon="6.36076">
        <ele>380.34</ele>
        <time>2012-11-18T09:17:09Z</time>
      </trkpt>
      <trkpt lat="43.24291" lon="6.36091">
        <ele>376.97</ele>
        <time>2012-11-18T09:18:25Z</time>
      </trkpt>
      <trkpt lat="43.24312" lon="6.361">
        <ele>372.17</ele>
        <time>2012-11-18T09:19:10Z</time>
      </trkpt>
      <trkpt lat="43.24311" lon="6.36111">
        <ele>372.65</ele>
        <time>2012-11-18T09:20:08Z</time>
      </trkpt>
      <trkpt lat="43.24316" lon="6.36113">
        <ele>373.13</ele>
        <time>2012-11-18T09:22:08Z</time>
      </trkpt>
      <trkpt lat="43.24324" lon="6.36128">
        <ele>373.61</ele>
        <time>2012-11-18T09:23:40Z</time>
      </trkpt>
      <trkpt lat="43.2433" lon="6.36151">
        <ele>372.17</ele>
        <time>2012-11-18T09:24:04Z</time>
      </trkpt>
      <trkpt lat="43.24331" lon="6.36179">
        <ele>369.28</ele>
        <time>2012-11-18T09:24:26Z</time>
      </trkpt>
      <trkpt lat="43.24341" lon="6.36205">
        <ele>365.92</ele>
        <time>2012-11-18T09:24:56Z</time>
      </trkpt>
      <trkpt lat="43.24338" lon="6.3624">
        <ele>364</ele>
        <time>2012-11-18T09:25:21Z</time>
      </trkpt>
      <trkpt lat="43.24337" lon="6.36268">
        <ele>362.07</ele>
        <time>2012-11-18T09:25:41Z</time>
      </trkpt>
      <trkpt lat="43.24337" lon="6.36307">
        <ele>360.63</ele>
        <time>2012-11-18T09:26:07Z</time>
      </trkpt>
      <trkpt lat="43.24338" lon="6.36338">
        <ele>358.23</ele>
        <time>2012-11-18T09:26:29Z</time>
      </trkpt>
      <trkpt lat="43.24342" lon="6.36374">
        <ele>355.83</ele>
        <time>2012-11-18T09:26:49Z</time>
      </trkpt>
      <trkpt lat="43.24342" lon="6.36403">
        <ele>353.9</ele>
        <time>2012-11-18T09:27:09Z</time>
      </trkpt>
      <trkpt lat="43.24337" lon="6.3643">
        <ele>351.98</ele>
        <time>2012-11-18T09:27:28Z</time>
      </trkpt>
      <trkpt lat="43.24338" lon="6.36456">
        <ele>351.02</ele>
        <time>2012-11-18T09:27:45Z</time>
      </trkpt>
      <trkpt lat="43.24329" lon="6.36486">
        <ele>350.54</ele>
        <time>2012-11-18T09:28:09Z</time>
      </trkpt>
      <trkpt lat="43.24327" lon="6.36517">
        <ele>348.62</ele>
        <time>2012-11-18T09:29:03Z</time>
      </trkpt>
      <trkpt lat="43.24324" lon="6.36557">
        <ele>340.44</ele>
        <time>2012-11-18T09:30:19Z</time>
      </trkpt>
      <trkpt lat="43.24331" lon="6.36593">
        <ele>340.44</ele>
        <time>2012-11-18T09:31:04Z</time>
      </trkpt>
      <trkpt lat="43.2431" lon="6.36617">
        <ele>337.08</ele>
        <time>2012-11-18T09:31:38Z</time>
      </trkpt>
      <trkpt lat="43.24288" lon="6.36643">
        <ele>334.2</ele>
        <time>2012-11-18T09:32:19Z</time>
      </trkpt>
      <trkpt lat="43.24283" lon="6.36669">
        <ele>331.79</ele>
        <time>2012-11-18T09:34:19Z</time>
      </trkpt>
      <trkpt lat="43.24252" lon="6.36673">
        <ele>332.27</ele>
        <time>2012-11-18T09:34:52Z</time>
      </trkpt>
      <trkpt lat="43.24223" lon="6.36675">
        <ele>329.39</ele>
        <time>2012-11-18T09:35:35Z</time>
      </trkpt>
      <trkpt lat="43.242" lon="6.36689">
        <ele>329.39</ele>
        <time>2012-11-18T09:37:07Z</time>
      </trkpt>
      <trkpt lat="43.24183" lon="6.36698">
        <ele>330.83</ele>
        <time>2012-11-18T09:37:59Z</time>
      </trkpt>
      <trkpt lat="43.24165" lon="6.36702">
        <ele>332.27</ele>
        <time>2012-11-18T09:39:01Z</time>
      </trkpt>
      <trkpt lat="43.24144" lon="6.36701">
        <ele>332.75</ele>
        <time>2012-11-18T09:39:49Z</time>
      </trkpt>
      <trkpt lat="43.24129" lon="6.36701">
        <ele>332.27</ele>
        <time>2012-11-18T09:40:27Z</time>
      </trkpt>
      <trkpt lat="43.24111" lon="6.36694">
        <ele>328.91</ele>
        <time>2012-11-18T09:41:18Z</time>
      </trkpt>
      <trkpt lat="43.24098" lon="6.36681">
        <ele>326.99</ele>
        <time>2012-11-18T09:42:09Z</time>
      </trkpt>
      <trkpt lat="43.24096" lon="6.3667">
        <ele>321.7</ele>
        <time>2012-11-18T09:43:14Z</time>
      </trkpt>
      <trkpt lat="43.24083" lon="6.3667">
        <ele>324.1</ele>
        <time>2012-11-18T09:43:58Z</time>
      </trkpt>
      <trkpt lat="43.24074" lon="6.36676">
        <ele>322.18</ele>
        <time>2012-11-18T09:44:36Z</time>
      </trkpt>
      <trkpt lat="43.2406" lon="6.36681">
        <ele>318.81</ele>
        <time>2012-11-18T09:45:12Z</time>
      </trkpt>
      <trkpt lat="43.24052" lon="6.36682">
        <ele>315.45</ele>
        <time>2012-11-18T09:46:38Z</time>
      </trkpt>
      <trkpt lat="43.24044" lon="6.36693">
        <ele>310.64</ele>
        <time>2012-11-18T09:47:37Z</time>
      </trkpt>
      <trkpt lat="43.24028" lon="6.36694">
        <ele>310.16</ele>
        <time>2012-11-18T09:48:12Z</time>
      </trkpt>
      <trkpt lat="43.24015" lon="6.36695">
        <ele>309.2</ele>
        <time>2012-11-18T09:48:40Z</time>
      </trkpt>
      <trkpt lat="43.24007" lon="6.36696">
        <ele>305.84</ele>
        <time>2012-11-18T09:50:09Z</time>
      </trkpt>
      <trkpt lat="43.23998" lon="6.36699">
        <ele>303.43</ele>
        <time>2012-11-18T09:50:59Z</time>
      </trkpt>
      <trkpt lat="43.23986" lon="6.36709">
        <ele>299.59</ele>
        <time>2012-11-18T09:51:55Z</time>
      </trkpt>
      <trkpt lat="43.23975" lon="6.36724">
        <ele>292.86</ele>
        <time>2012-11-18T09:53:19Z</time>
      </trkpt>
      <trkpt lat="43.23973" lon="6.36732">
        <ele>288.05</ele>
        <time>2012-11-18T09:54:23Z</time>
      </trkpt>
      <trkpt lat="43.23961" lon="6.36731">
        <ele>290.46</ele>
        <time>2012-11-18T09:55:10Z</time>
      </trkpt>
      <trkpt lat="43.2395" lon="6.36738">
        <ele>291.42</ele>
        <time>2012-11-18T09:55:44Z</time>
      </trkpt>
      <trkpt lat="43.23937" lon="6.36755">
        <ele>289.97</ele>
        <time>2012-11-18T09:56:35Z</time>
      </trkpt>
      <trkpt lat="43.2394" lon="6.36751">
        <ele>289.01</ele>
        <time>2012-11-18T09:58:21Z</time>
      </trkpt>
      <trkpt lat="43.23933" lon="6.36751">
        <ele>289.49</ele>
        <time>2012-11-18T09:59:08Z</time>
      </trkpt>
      <trkpt lat="43.2391" lon="6.36775">
        <ele>289.01</ele>
        <time>2012-11-18T09:59:46Z</time>
      </trkpt>
      <trkpt lat="43.23892" lon="6.36794">
        <ele>285.65</ele>
        <time>2012-11-18T10:00:15Z</time>
      </trkpt>
      <trkpt lat="43.23883" lon="6.36802">
        <ele>279.4</ele>
        <time>2012-11-18T10:01:32Z</time>
      </trkpt>
      <trkpt lat="43.23873" lon="6.36818">
        <ele>274.59</ele>
        <time>2012-11-18T10:02:14Z</time>
      </trkpt>
      <trkpt lat="43.23864" lon="6.36814">
        <ele>270.27</ele>
        <time>2012-11-18T10:03:18Z</time>
      </trkpt>
      <trkpt lat="43.23864" lon="6.36823">
        <ele>269.31</ele>
        <time>2012-11-18T10:05:07Z</time>
      </trkpt>
      <trkpt lat="43.23863" lon="6.36836">
        <ele>270.75</ele>
        <time>2012-11-18T10:06:25Z</time>
      </trkpt>
      <trkpt lat="43.23851" lon="6.36849">
        <ele>269.79</ele>
        <time>2012-11-18T10:07:41Z</time>
      </trkpt>
      <trkpt lat="43.23847" lon="6.36853">
        <ele>270.27</ele>
        <time>2012-11-18T10:10:24Z</time>
      </trkpt>
      <trkpt lat="43.23828" lon="6.36859">
        <ele>277</ele>
        <time>2012-11-18T10:11:33Z</time>
      </trkpt>
      <trkpt lat="43.23815" lon="6.36871">
        <ele>278.92</ele>
        <time>2012-11-18T10:12:08Z</time>
      </trkpt>
      <trkpt lat="43.23804" lon="6.36894">
        <ele>279.88</ele>
        <time>2012-11-18T10:12:52Z</time>
      </trkpt>
      <trkpt lat="43.23794" lon="6.36899">
        <ele>284.21</ele>
        <time>2012-11-18T10:13:38Z</time>
      </trkpt>
      <trkpt lat="43.2378" lon="6.36902">
        <ele>290.94</ele>
        <time>2012-11-18T10:15:03Z</time>
      </trkpt>
      <trkpt lat="43.23768" lon="6.36908">
        <ele>294.3</ele>
        <time>2012-11-18T10:16:33Z</time>
      </trkpt>
      <trkpt lat="43.23754" lon="6.36909">
        <ele>299.59</ele>
        <time>2012-11-18T10:17:26Z</time>
      </trkpt>
      <trkpt lat="43.23741" lon="6.36917">
        <ele>299.11</ele>
        <time>2012-11-18T10:18:39Z</time>
      </trkpt>
      <trkpt lat="43.23732" lon="6.36933">
        <ele>303.91</ele>
        <time>2012-11-18T10:19:30Z</time>
      </trkpt>
      <trkpt lat="43.23718" lon="6.36955">
        <ele>310.16</ele>
        <time>2012-11-18T10:20:13Z</time>
      </trkpt>
      <trkpt lat="43.2371" lon="6.36967">
        <ele>315.45</ele>
        <time>2012-11-18T10:21:19Z</time>
      </trkpt>
      <trkpt lat="43.23695" lon="6.3697">
        <ele>323.14</ele>
        <time>2012-11-18T10:22:35Z</time>
      </trkpt>
      <trkpt lat="43.23681" lon="6.36987">
        <ele>331.31</ele>
        <time>2012-11-18T10:23:36Z</time>
      </trkpt>
      <trkpt lat="43.23666" lon="6.37015">
        <ele>336.12</ele>
        <time>2012-11-18T10:24:38Z</time>
      </trkpt>
      <trkpt lat="43.23653" lon="6.37044">
        <ele>333.71</ele>
        <time>2012-11-18T10:25:10Z</time>
      </trkpt>
      <trkpt lat="43.2364" lon="6.37075">
        <ele>331.31</ele>
        <time>2012-11-18T10:25:46Z</time>
      </trkpt>
      <trkpt lat="43.23627" lon="6.37108">
        <ele>325.06</ele>
        <time>2012-11-18T10:26:23Z</time>
      </trkpt>
      <trkpt lat="43.23609" lon="6.37129">
        <ele>324.1</ele>
        <time>2012-11-18T10:26:51Z</time>
      </trkpt>
      <trkpt lat="43.23592" lon="6.37134">
        <ele>322.18</ele>
        <time>2012-11-18T10:27:35Z</time>
      </trkpt>
      <trkpt lat="43.23574" lon="6.37128">
        <ele>322.18</ele>
        <time>2012-11-18T10:28:12Z</time>
      </trkpt>
      <trkpt lat="43.23565" lon="6.37118">
        <ele>321.22</ele>
        <time>2012-11-18T10:28:54Z</time>
      </trkpt>
      <trkpt lat="43.23573" lon="6.371">
        <ele>320.26</ele>
        <time>2012-11-18T10:29:54Z</time>
      </trkpt>
      <trkpt lat="43.23572" lon="6.37122">
        <ele>321.7</ele>
        <time>2012-11-18T10:30:47Z</time>
      </trkpt>
      <trkpt lat="43.2357" lon="6.37133">
        <ele>321.7</ele>
        <time>2012-11-18T10:36:29Z</time>
      </trkpt>
      <trkpt lat="43.23567" lon="6.37126">
        <ele>322.66</ele>
        <time>2012-11-18T10:42:01Z</time>
      </trkpt>
      <trkpt lat="43.23571" lon="6.37125">
        <ele>322.18</ele>
        <time>2012-11-18T10:48:17Z</time>
      </trkpt>
      <trkpt lat="43.2356" lon="6.37138">
        <ele>323.14</ele>
        <time>2012-11-18T10:49:20Z</time>
      </trkpt>
      <trkpt lat="43.2355" lon="6.37153">
        <ele>323.14</ele>
        <time>2012-11-18T10:49:56Z</time>
      </trkpt>
      <trkpt lat="43.23542" lon="6.3717">
        <ele>319.78</ele>
        <time>2012-11-18T10:50:34Z</time>
      </trkpt>
      <trkpt lat="43.23533" lon="6.37209">
        <ele>316.41</ele>
        <time>2012-11-18T10:51:02Z</time>
      </trkpt>
      <trkpt lat="43.23522" lon="6.3724">
        <ele>314.97</ele>
        <time>2012-11-18T10:51:30Z</time>
      </trkpt>
      <trkpt lat="43.23513" lon="6.37277">
        <ele>312.09</ele>
        <time>2012-11-18T10:52:04Z</time>
      </trkpt>
      <trkpt lat="43.2351" lon="6.37315">
        <ele>309.68</ele>
        <time>2012-11-18T10:52:41Z</time>
      </trkpt>
      <trkpt lat="43.23512" lon="6.37358">
        <ele>307.76</ele>
        <time>2012-11-18T10:53:14Z</time>
      </trkpt>
      <trkpt lat="43.23513" lon="6.37396">
        <ele>306.8</ele>
        <time>2012-11-18T10:53:47Z</time>
      </trkpt>
      <trkpt lat="43.23525" lon="6.37423">
        <ele>305.36</ele>
        <time>2012-11-18T10:54:22Z</time>
      </trkpt>
      <trkpt lat="43.23534" lon="6.37463">
        <ele>304.39</ele>
        <time>2012-11-18T10:54:50Z</time>
      </trkpt>
      <trkpt lat="43.23543" lon="6.37504">
        <ele>303.43</ele>
        <time>2012-11-18T10:55:30Z</time>
      </trkpt>
      <trkpt lat="43.23572" lon="6.37516">
        <ele>301.99</ele>
        <time>2012-11-18T10:56:03Z</time>
      </trkpt>
      <trkpt lat="43.2359" lon="6.37535">
        <ele>300.55</ele>
        <time>2012-11-18T10:56:32Z</time>
      </trkpt>
      <trkpt lat="43.23606" lon="6.37562">
        <ele>298.63</ele>
        <time>2012-11-18T10:57:04Z</time>
      </trkpt>
      <trkpt lat="43.23626" lon="6.37592">
        <ele>298.63</ele>
        <time>2012-11-18T10:57:35Z</time>
      </trkpt>
      <trkpt lat="43.23653" lon="6.37623">
        <ele>298.63</ele>
        <time>2012-11-18T10:58:08Z</time>
      </trkpt>
      <trkpt lat="43.23662" lon="6.37656">
        <ele>295.26</ele>
        <time>2012-11-18T10:58:47Z</time>
      </trkpt>
      <trkpt lat="43.23654" lon="6.377">
        <ele>291.9</ele>
        <time>2012-11-18T10:59:15Z</time>
      </trkpt>
      <trkpt lat="43.23653" lon="6.3775">
        <ele>288.05</ele>
        <time>2012-11-18T10:59:57Z</time>
      </trkpt>
      <trkpt lat="43.23667" lon="6.37772">
        <ele>286.13</ele>
        <time>2012-11-18T11:01:07Z</time>
      </trkpt>
      <trkpt lat="43.23684" lon="6.37808">
        <ele>285.17</ele>
        <time>2012-11-18T11:01:44Z</time>
      </trkpt>
      <trkpt lat="43.23705" lon="6.37851">
        <ele>283.25</ele>
        <time>2012-11-18T11:02:19Z</time>
      </trkpt>
      <trkpt lat="43.23716" lon="6.37873">
        <ele>282.28</ele>
        <time>2012-11-18T11:03:00Z</time>
      </trkpt>
      <trkpt lat="43.23732" lon="6.37902">
        <ele>280.36</ele>
        <time>2012-11-18T11:03:29Z</time>
      </trkpt>
      <trkpt lat="43.23747" lon="6.37935">
        <ele>278.92</ele>
        <time>2012-11-18T11:03:59Z</time>
      </trkpt>
      <trkpt lat="43.23767" lon="6.37961">
        <ele>277.48</ele>
        <time>2012-11-18T11:04:29Z</time>
      </trkpt>
      <trkpt lat="43.23777" lon="6.37998">
        <ele>274.11</ele>
        <time>2012-11-18T11:05:00Z</time>
      </trkpt>
      <trkpt lat="43.23782" lon="6.38044">
        <ele>270.75</ele>
        <time>2012-11-18T11:05:42Z</time>
      </trkpt>
      <trkpt lat="43.23795" lon="6.38081">
        <ele>267.38</ele>
        <time>2012-11-18T11:06:18Z</time>
      </trkpt>
      <trkpt lat="43.23813" lon="6.38127">
        <ele>264.98</ele>
        <time>2012-11-18T11:06:42Z</time>
      </trkpt>
      <trkpt lat="43.23834" lon="6.38166">
        <ele>262.1</ele>
        <time>2012-11-18T11:07:16Z</time>
      </trkpt>
      <trkpt lat="43.23848" lon="6.38204">
        <ele>260.65</ele>
        <time>2012-11-18T11:07:49Z</time>
      </trkpt>
      <trkpt lat="43.23864" lon="6.38241">
        <ele>259.21</ele>
        <time>2012-11-18T11:08:20Z</time>
      </trkpt>
      <trkpt lat="43.23874" lon="6.38279">
        <ele>258.25</ele>
        <time>2012-11-18T11:08:51Z</time>
      </trkpt>
      <trkpt lat="43.23868" lon="6.38316">
        <ele>257.29</ele>
        <time>2012-11-18T11:09:17Z</time>
      </trkpt>
      <trkpt lat="43.23865" lon="6.38352">
        <ele>256.81</ele>
        <time>2012-11-18T11:09:52Z</time>
      </trkpt>
      <trkpt lat="43.23881" lon="6.38355">
        <ele>255.85</ele>
        <time>2012-11-18T11:10:35Z</time>
      </trkpt>
      <trkpt lat="43.23909" lon="6.38369">
        <ele>254.89</ele>
        <time>2012-11-18T11:11:04Z</time>
      </trkpt>
      <trkpt lat="43.23928" lon="6.38392">
        <ele>253.93</ele>
        <time>2012-11-18T11:11:33Z</time>
      </trkpt>
      <trkpt lat="43.23956" lon="6.38419">
        <ele>252.48</ele>
        <time>2012-11-18T11:12:05Z</time>
      </trkpt>
      <trkpt lat="43.23976" lon="6.3845">
        <ele>251.04</ele>
        <time>2012-11-18T11:12:36Z</time>
      </trkpt>
      <trkpt lat="43.23979" lon="6.38493">
        <ele>249.12</ele>
        <time>2012-11-18T11:13:09Z</time>
      </trkpt>
      <trkpt lat="43.23984" lon="6.3854">
        <ele>246.72</ele>
        <time>2012-11-18T11:13:41Z</time>
      </trkpt>
      <trkpt lat="43.23993" lon="6.38594">
        <ele>243.83</ele>
        <time>2012-11-18T11:14:19Z</time>
      </trkpt>
      <trkpt lat="43.24004" lon="6.38632">
        <ele>240.95</ele>
        <time>2012-11-18T11:14:48Z</time>
      </trkpt>
      <trkpt lat="43.23987" lon="6.38676">
        <ele>237.58</ele>
        <time>2012-11-18T11:15:27Z</time>
      </trkpt>
      <trkpt lat="43.23965" lon="6.38706">
        <ele>233.74</ele>
        <time>2012-11-18T11:16:18Z</time>
      </trkpt>
      <trkpt lat="43.23989" lon="6.38689">
        <ele>231.33</ele>
        <time>2012-11-18T11:17:04Z</time>
      </trkpt>
      <trkpt lat="43.24035" lon="6.38694">
        <ele>228.45</ele>
        <time>2012-11-18T11:17:48Z</time>
      </trkpt>
      <trkpt lat="43.24066" lon="6.38723">
        <ele>234.7</ele>
        <time>2012-11-18T11:18:46Z</time>
      </trkpt>
      <trkpt lat="43.2408" lon="6.38761">
        <ele>239.02</ele>
        <time>2012-11-18T11:19:28Z</time>
      </trkpt>
      <trkpt lat="43.2409" lon="6.38788">
        <ele>242.39</ele>
        <time>2012-11-18T11:20:15Z</time>
      </trkpt>
      <trkpt lat="43.241" lon="6.38816">
        <ele>246.23</ele>
        <time>2012-11-18T11:21:24Z</time>
      </trkpt>
      <trkpt lat="43.24101" lon="6.38851">
        <ele>250.56</ele>
        <time>2012-11-18T11:22:13Z</time>
      </trkpt>
      <trkpt lat="43.24108" lon="6.38893">
        <ele>252.96</ele>
        <time>2012-11-18T11:23:07Z</time>
      </trkpt>
      <trkpt lat="43.24084" lon="6.38927">
        <ele>255.85</ele>
        <time>2012-11-18T11:23:47Z</time>
      </trkpt>
      <trkpt lat="43.24057" lon="6.38937">
        <ele>260.17</ele>
        <time>2012-11-18T11:24:34Z</time>
      </trkpt>
      <trkpt lat="43.24032" lon="6.38944">
        <ele>263.06</ele>
        <time>2012-11-18T11:25:06Z</time>
      </trkpt>
      <trkpt lat="43.24026" lon="6.38983">
        <ele>266.42</ele>
        <time>2012-11-18T11:25:42Z</time>
      </trkpt>
      <trkpt lat="43.24018" lon="6.39006">
        <ele>268.83</ele>
        <time>2012-11-18T11:26:57Z</time>
      </trkpt>
      <trkpt lat="43.24001" lon="6.39035">
        <ele>271.23</ele>
        <time>2012-11-18T11:27:41Z</time>
      </trkpt>
      <trkpt lat="43.23981" lon="6.39055">
        <ele>274.11</ele>
        <time>2012-11-18T11:28:14Z</time>
      </trkpt>
      <trkpt lat="43.23962" lon="6.39066">
        <ele>276.52</ele>
        <time>2012-11-18T11:28:48Z</time>
      </trkpt>
      <trkpt lat="43.23948" lon="6.39077">
        <ele>279.4</ele>
        <time>2012-11-18T11:29:22Z</time>
      </trkpt>
      <trkpt lat="43.2394" lon="6.39104">
        <ele>280.36</ele>
        <time>2012-11-18T11:29:54Z</time>
      </trkpt>
      <trkpt lat="43.23938" lon="6.39141">
        <ele>280.36</ele>
        <time>2012-11-18T11:30:31Z</time>
      </trkpt>
      <trkpt lat="43.23934" lon="6.39183">
        <ele>280.84</ele>
        <time>2012-11-18T11:31:01Z</time>
      </trkpt>
      <trkpt lat="43.23931" lon="6.39216">
        <ele>284.69</ele>
        <time>2012-11-18T11:31:44Z</time>
      </trkpt>
      <trkpt lat="43.23932" lon="6.39254">
        <ele>287.57</ele>
        <time>2012-11-18T11:32:53Z</time>
      </trkpt>
      <trkpt lat="43.23934" lon="6.39273">
        <ele>289.49</ele>
        <time>2012-11-18T11:33:42Z</time>
      </trkpt>
      <trkpt lat="43.23945" lon="6.39297">
        <ele>298.15</ele>
        <time>2012-11-18T11:34:47Z</time>
      </trkpt>
      <trkpt lat="43.23952" lon="6.39327">
        <ele>304.39</ele>
        <time>2012-11-18T11:35:33Z</time>
      </trkpt>
      <trkpt lat="43.2396" lon="6.39349">
        <ele>311.12</ele>
        <time>2012-11-18T11:36:26Z</time>
      </trkpt>
      <trkpt lat="43.23958" lon="6.39365">
        <ele>316.41</ele>
        <time>2012-11-18T11:37:16Z</time>
      </trkpt>
      <trkpt lat="43.2396" lon="6.39388">
        <ele>322.66</ele>
        <time>2012-11-18T11:38:12Z</time>
      </trkpt>
      <trkpt lat="43.2397" lon="6.39411">
        <ele>328.91</ele>
        <time>2012-11-18T11:38:51Z</time>
      </trkpt>
      <trkpt lat="43.23979" lon="6.39434">
        <ele>334.68</ele>
        <time>2012-11-18T11:39:38Z</time>
      </trkpt>
      <trkpt lat="43.23995" lon="6.39447">
        <ele>339</ele>
        <time>2012-11-18T11:40:25Z</time>
      </trkpt>
      <trkpt lat="43.24007" lon="6.39478">
        <ele>344.29</ele>
        <time>2012-11-18T11:41:09Z</time>
      </trkpt>
      <trkpt lat="43.24001" lon="6.39505">
        <ele>349.1</ele>
        <time>2012-11-18T11:41:48Z</time>
      </trkpt>
      <trkpt lat="43.23996" lon="6.39541">
        <ele>353.9</ele>
        <time>2012-11-18T11:42:34Z</time>
      </trkpt>
      <trkpt lat="43.2402" lon="6.39571">
        <ele>358.71</ele>
        <time>2012-11-18T11:43:26Z</time>
      </trkpt>
      <trkpt lat="43.24025" lon="6.39607">
        <ele>364</ele>
        <time>2012-11-18T11:44:21Z</time>
      </trkpt>
      <trkpt lat="43.24014" lon="6.39627">
        <ele>368.32</ele>
        <time>2012-11-18T11:44:59Z</time>
      </trkpt>
      <trkpt lat="43.23998" lon="6.39633">
        <ele>370.73</ele>
        <time>2012-11-18T11:45:38Z</time>
      </trkpt>
      <trkpt lat="43.23966" lon="6.39643">
        <ele>373.13</ele>
        <time>2012-11-18T11:46:21Z</time>
      </trkpt>
      <trkpt lat="43.23938" lon="6.39659">
        <ele>374.57</ele>
        <time>2012-11-18T11:46:59Z</time>
      </trkpt>
      <trkpt lat="43.23915" lon="6.39692">
        <ele>371.69</ele>
        <time>2012-11-18T11:47:34Z</time>
      </trkpt>
      <trkpt lat="43.23901" lon="6.39718">
        <ele>371.21</ele>
        <time>2012-11-18T11:48:14Z</time>
      </trkpt>
      <trkpt lat="43.23883" lon="6.39748">
        <ele>368.8</ele>
        <time>2012-11-18T11:48:59Z</time>
      </trkpt>
      <trkpt lat="43.23859" lon="6.39778">
        <ele>367.84</ele>
        <time>2012-11-18T11:49:36Z</time>
      </trkpt>
      <trkpt lat="43.23844" lon="6.39791">
        <ele>365.44</ele>
        <time>2012-11-18T11:50:13Z</time>
      </trkpt>
      <trkpt lat="43.23822" lon="6.39798">
        <ele>370.24</ele>
        <time>2012-11-18T11:50:51Z</time>
      </trkpt>
      <trkpt lat="43.23807" lon="6.39805">
        <ele>371.21</ele>
        <time>2012-11-18T11:51:30Z</time>
      </trkpt>
      <trkpt lat="43.23778" lon="6.39808">
        <ele>370.73</ele>
        <time>2012-11-18T11:51:56Z</time>
      </trkpt>
      <trkpt lat="43.2375" lon="6.39814">
        <ele>371.21</ele>
        <time>2012-11-18T11:52:35Z</time>
      </trkpt>
      <trkpt lat="43.23728" lon="6.39824">
        <ele>371.69</ele>
        <time>2012-11-18T11:53:00Z</time>
      </trkpt>
      <trkpt lat="43.23705" lon="6.39835">
        <ele>372.17</ele>
        <time>2012-11-18T11:53:31Z</time>
      </trkpt>
      <trkpt lat="43.23677" lon="6.39841">
        <ele>374.09</ele>
        <time>2012-11-18T11:54:00Z</time>
      </trkpt>
      <trkpt lat="43.23655" lon="6.39867">
        <ele>376.49</ele>
        <time>2012-11-18T11:54:35Z</time>
      </trkpt>
      <trkpt lat="43.23645" lon="6.39868">
        <ele>378.42</ele>
        <time>2012-11-18T11:55:50Z</time>
      </trkpt>
      <trkpt lat="43.23631" lon="6.39897">
        <ele>381.3</ele>
        <time>2012-11-18T11:56:25Z</time>
      </trkpt>
      <trkpt lat="43.23616" lon="6.39915">
        <ele>384.66</ele>
        <time>2012-11-18T11:56:55Z</time>
      </trkpt>
      <trkpt lat="43.23605" lon="6.39923">
        <ele>385.63</ele>
        <time>2012-11-18T11:59:01Z</time>
      </trkpt>
      <trkpt lat="43.2359" lon="6.39918">
        <ele>385.63</ele>
        <time>2012-11-18T11:59:33Z</time>
      </trkpt>
      <trkpt lat="43.23566" lon="6.39908">
        <ele>379.86</ele>
        <time>2012-11-18T12:00:06Z</time>
      </trkpt>
      <trkpt lat="43.2354" lon="6.39905">
        <ele>376.97</ele>
        <time>2012-11-18T12:00:30Z</time>
      </trkpt>
      <trkpt lat="43.23521" lon="6.39896">
        <ele>376.97</ele>
        <time>2012-11-18T12:01:05Z</time>
      </trkpt>
      <trkpt lat="43.23508" lon="6.39908">
        <ele>382.26</ele>
        <time>2012-11-18T12:01:47Z</time>
      </trkpt>
      <trkpt lat="43.23493" lon="6.39924">
        <ele>383.7</ele>
        <time>2012-11-18T12:03:32Z</time>
      </trkpt>
      <trkpt lat="43.23493" lon="6.39936">
        <ele>386.11</ele>
        <time>2012-11-18T12:04:32Z</time>
      </trkpt>
      <trkpt lat="43.23495" lon="6.39946">
        <ele>390.43</ele>
        <time>2012-11-18T12:05:34Z</time>
      </trkpt>
      <trkpt lat="43.235" lon="6.39965">
        <ele>393.32</ele>
        <time>2012-11-18T12:06:11Z</time>
      </trkpt>
      <trkpt lat="43.23504" lon="6.39985">
        <ele>397.64</ele>
        <time>2012-11-18T12:07:05Z</time>
      </trkpt>
      <trkpt lat="43.23503" lon="6.40007">
        <ele>403.89</ele>
        <time>2012-11-18T12:07:51Z</time>
      </trkpt>
      <trkpt lat="43.23505" lon="6.40027">
        <ele>407.26</ele>
        <time>2012-11-18T12:08:32Z</time>
      </trkpt>
      <trkpt lat="43.23516" lon="6.40034">
        <ele>406.29</ele>
        <time>2012-11-18T12:09:25Z</time>
      </trkpt>
      <trkpt lat="43.23518" lon="6.40037">
        <ele>408.7</ele>
        <time>2012-11-18T12:46:10Z</time>
      </trkpt>
      <trkpt lat="43.23522" lon="6.40035">
        <ele>410.62</ele>
        <time>2012-11-18T12:58:31Z</time>
      </trkpt>
      <trkpt lat="43.23507" lon="6.40035">
        <ele>412.54</ele>
        <time>2012-11-18T12:59:26Z</time>
      </trkpt>
      <trkpt lat="43.23492" lon="6.40036">
        <ele>418.31</ele>
        <time>2012-11-18T12:59:52Z</time>
      </trkpt>
      <trkpt lat="43.23498" lon="6.40052">
        <ele>419.75</ele>
        <time>2012-11-18T13:00:28Z</time>
      </trkpt>
      <trkpt lat="43.23499" lon="6.40051">
        <ele>419.27</ele>
        <time>2012-11-18T13:02:18Z</time>
      </trkpt>
      <trkpt lat="43.23501" lon="6.40067">
        <ele>419.27</ele>
        <time>2012-11-18T13:03:19Z</time>
      </trkpt>
      <trkpt lat="43.23505" lon="6.40087">
        <ele>418.79</ele>
        <time>2012-11-18T13:03:50Z</time>
      </trkpt>
      <trkpt lat="43.23505" lon="6.40115">
        <ele>418.31</ele>
        <time>2012-11-18T13:04:11Z</time>
      </trkpt>
      <trkpt lat="43.23503" lon="6.40139">
        <ele>416.39</ele>
        <time>2012-11-18T13:04:29Z</time>
      </trkpt>
      <trkpt lat="43.23484" lon="6.40153">
        <ele>416.87</ele>
        <time>2012-11-18T13:04:50Z</time>
      </trkpt>
      <trkpt lat="43.23462" lon="6.40162">
        <ele>418.31</ele>
        <time>2012-11-18T13:05:09Z</time>
      </trkpt>
      <trkpt lat="43.23441" lon="6.40171">
        <ele>419.75</ele>
        <time>2012-11-18T13:05:31Z</time>
      </trkpt>
      <trkpt lat="43.23421" lon="6.40183">
        <ele>421.19</ele>
        <time>2012-11-18T13:05:51Z</time>
      </trkpt>
      <trkpt lat="43.234" lon="6.40196">
        <ele>422.16</ele>
        <time>2012-11-18T13:06:12Z</time>
      </trkpt>
      <trkpt lat="43.23377" lon="6.40206">
        <ele>424.08</ele>
        <time>2012-11-18T13:06:34Z</time>
      </trkpt>
      <trkpt lat="43.2336" lon="6.40221">
        <ele>425.04</ele>
        <time>2012-11-18T13:06:57Z</time>
      </trkpt>
      <trkpt lat="43.23349" lon="6.40236">
        <ele>427.92</ele>
        <time>2012-11-18T13:07:27Z</time>
      </trkpt>
      <trkpt lat="43.23357" lon="6.40262">
        <ele>427.92</ele>
        <time>2012-11-18T13:07:46Z</time>
      </trkpt>
      <trkpt lat="43.23351" lon="6.40288">
        <ele>429.37</ele>
        <time>2012-11-18T13:08:07Z</time>
      </trkpt>
      <trkpt lat="43.23354" lon="6.40325">
        <ele>430.33</ele>
        <time>2012-11-18T13:08:30Z</time>
      </trkpt>
      <trkpt lat="43.23352" lon="6.40358">
        <ele>430.33</ele>
        <time>2012-11-18T13:09:03Z</time>
      </trkpt>
      <trkpt lat="43.2335" lon="6.40392">
        <ele>429.37</ele>
        <time>2012-11-18T13:09:25Z</time>
      </trkpt>
      <trkpt lat="43.23345" lon="6.40424">
        <ele>428.4</ele>
        <time>2012-11-18T13:09:47Z</time>
      </trkpt>
      <trkpt lat="43.23336" lon="6.40456">
        <ele>427.92</ele>
        <time>2012-11-18T13:10:09Z</time>
      </trkpt>
      <trkpt lat="43.23322" lon="6.40489">
        <ele>427.44</ele>
        <time>2012-11-18T13:10:36Z</time>
      </trkpt>
      <trkpt lat="43.23313" lon="6.40517">
        <ele>427.44</ele>
        <time>2012-11-18T13:10:56Z</time>
      </trkpt>
      <trkpt lat="43.23312" lon="6.40551">
        <ele>427.44</ele>
        <time>2012-11-18T13:11:21Z</time>
      </trkpt>
      <trkpt lat="43.23315" lon="6.40583">
        <ele>427.92</ele>
        <time>2012-11-18T13:11:45Z</time>
      </trkpt>
      <trkpt lat="43.23317" lon="6.40616">
        <ele>427.92</ele>
        <time>2012-11-18T13:12:07Z</time>
      </trkpt>
      <trkpt lat="43.23319" lon="6.40651">
        <ele>427.92</ele>
        <time>2012-11-18T13:12:31Z</time>
      </trkpt>
      <trkpt lat="43.23331" lon="6.40675">
        <ele>428.89</ele>
        <time>2012-11-18T13:12:55Z</time>
      </trkpt>
      <trkpt lat="43.23353" lon="6.40687">
        <ele>428.89</ele>
        <time>2012-11-18T13:13:15Z</time>
      </trkpt>
      <trkpt lat="43.23375" lon="6.40705">
        <ele>429.37</ele>
        <time>2012-11-18T13:13:36Z</time>
      </trkpt>
      <trkpt lat="43.23391" lon="6.40722">
        <ele>430.33</ele>
        <time>2012-11-18T13:13:56Z</time>
      </trkpt>
      <trkpt lat="43.23409" lon="6.40742">
        <ele>431.29</ele>
        <time>2012-11-18T13:14:14Z</time>
      </trkpt>
      <trkpt lat="43.23424" lon="6.40763">
        <ele>431.77</ele>
        <time>2012-11-18T13:14:32Z</time>
      </trkpt>
      <trkpt lat="43.23433" lon="6.40788">
        <ele>432.73</ele>
        <time>2012-11-18T13:14:49Z</time>
      </trkpt>
      <trkpt lat="43.2344" lon="6.4081">
        <ele>433.21</ele>
        <time>2012-11-18T13:15:14Z</time>
      </trkpt>
      <trkpt lat="43.23449" lon="6.40835">
        <ele>433.69</ele>
        <time>2012-11-18T13:15:31Z</time>
      </trkpt>
      <trkpt lat="43.23447" lon="6.40862">
        <ele>435.13</ele>
        <time>2012-11-18T13:15:49Z</time>
      </trkpt>
      <trkpt lat="43.23434" lon="6.40883">
        <ele>436.58</ele>
        <time>2012-11-18T13:16:08Z</time>
      </trkpt>
      <trkpt lat="43.23416" lon="6.40897">
        <ele>437.54</ele>
        <time>2012-11-18T13:16:29Z</time>
      </trkpt>
      <trkpt lat="43.23396" lon="6.40913">
        <ele>437.54</ele>
        <time>2012-11-18T13:16:48Z</time>
      </trkpt>
      <trkpt lat="43.23376" lon="6.40929">
        <ele>437.54</ele>
        <time>2012-11-18T13:17:14Z</time>
      </trkpt>
      <trkpt lat="43.23367" lon="6.40941">
        <ele>436.1</ele>
        <time>2012-11-18T13:19:44Z</time>
      </trkpt>
      <trkpt lat="43.23378" lon="6.40929">
        <ele>436.1</ele>
        <time>2012-11-18T13:20:47Z</time>
      </trkpt>
      <trkpt lat="43.23396" lon="6.40912">
        <ele>437.06</ele>
        <time>2012-11-18T13:21:09Z</time>
      </trkpt>
      <trkpt lat="43.23416" lon="6.40903">
        <ele>436.58</ele>
        <time>2012-11-18T13:21:26Z</time>
      </trkpt>
      <trkpt lat="43.2343" lon="6.40883">
        <ele>436.1</ele>
        <time>2012-11-18T13:21:43Z</time>
      </trkpt>
      <trkpt lat="43.23433" lon="6.40853">
        <ele>437.06</ele>
        <time>2012-11-18T13:21:58Z</time>
      </trkpt>
      <trkpt lat="43.23427" lon="6.40823">
        <ele>438.02</ele>
        <time>2012-11-18T13:22:17Z</time>
      </trkpt>
      <trkpt lat="43.23416" lon="6.408">
        <ele>438.5</ele>
        <time>2012-11-18T13:22:33Z</time>
      </trkpt>
      <trkpt lat="43.23406" lon="6.40776">
        <ele>439.46</ele>
        <time>2012-11-18T13:22:50Z</time>
      </trkpt>
      <trkpt lat="43.23387" lon="6.40763">
        <ele>440.42</ele>
        <time>2012-11-18T13:23:11Z</time>
      </trkpt>
      <trkpt lat="43.23366" lon="6.4075">
        <ele>442.34</ele>
        <time>2012-11-18T13:23:34Z</time>
      </trkpt>
      <trkpt lat="43.23345" lon="6.40742">
        <ele>444.27</ele>
        <time>2012-11-18T13:23:56Z</time>
      </trkpt>
      <trkpt lat="43.23324" lon="6.40737">
        <ele>445.23</ele>
        <time>2012-11-18T13:24:19Z</time>
      </trkpt>
      <trkpt lat="43.23296" lon="6.40727">
        <ele>446.67</ele>
        <time>2012-11-18T13:24:42Z</time>
      </trkpt>
      <trkpt lat="43.23282" lon="6.40698">
        <ele>448.11</ele>
        <time>2012-11-18T13:25:06Z</time>
      </trkpt>
      <trkpt lat="43.23269" lon="6.40672">
        <ele>449.07</ele>
        <time>2012-11-18T13:25:26Z</time>
      </trkpt>
      <trkpt lat="43.23265" lon="6.4064">
        <ele>450.52</ele>
        <time>2012-11-18T13:25:45Z</time>
      </trkpt>
      <trkpt lat="43.23256" lon="6.4064">
        <ele>452.44</ele>
        <time>2012-11-18T13:26:02Z</time>
      </trkpt>
      <trkpt lat="43.2326" lon="6.40672">
        <ele>452.92</ele>
        <time>2012-11-18T13:26:24Z</time>
      </trkpt>
      <trkpt lat="43.23264" lon="6.40705">
        <ele>453.88</ele>
        <time>2012-11-18T13:26:44Z</time>
      </trkpt>
      <trkpt lat="43.23264" lon="6.40731">
        <ele>455.32</ele>
        <time>2012-11-18T13:27:01Z</time>
      </trkpt>
      <trkpt lat="43.23247" lon="6.40724">
        <ele>457.24</ele>
        <time>2012-11-18T13:27:19Z</time>
      </trkpt>
      <trkpt lat="43.23233" lon="6.40702">
        <ele>459.17</ele>
        <time>2012-11-18T13:27:38Z</time>
      </trkpt>
      <trkpt lat="43.23227" lon="6.40674">
        <ele>460.13</ele>
        <time>2012-11-18T13:28:01Z</time>
      </trkpt>
      <trkpt lat="43.23229" lon="6.40641">
        <ele>462.05</ele>
        <time>2012-11-18T13:28:28Z</time>
      </trkpt>
      <trkpt lat="43.23227" lon="6.40608">
        <ele>463.01</ele>
        <time>2012-11-18T13:28:54Z</time>
      </trkpt>
      <trkpt lat="43.23222" lon="6.40575">
        <ele>464.45</ele>
        <time>2012-11-18T13:29:19Z</time>
      </trkpt>
      <trkpt lat="43.23218" lon="6.40551">
        <ele>465.42</ele>
        <time>2012-11-18T13:29:40Z</time>
      </trkpt>
      <trkpt lat="43.23214" lon="6.40524">
        <ele>466.86</ele>
        <time>2012-11-18T13:30:02Z</time>
      </trkpt>
      <trkpt lat="43.23212" lon="6.40485">
        <ele>468.3</ele>
        <time>2012-11-18T13:30:33Z</time>
      </trkpt>
      <trkpt lat="43.23216" lon="6.40451">
        <ele>470.7</ele>
        <time>2012-11-18T13:31:00Z</time>
      </trkpt>
      <trkpt lat="43.23232" lon="6.40431">
        <ele>472.14</ele>
        <time>2012-11-18T13:31:26Z</time>
      </trkpt>
      <trkpt lat="43.2324" lon="6.40394">
        <ele>473.59</ele>
        <time>2012-11-18T13:31:48Z</time>
      </trkpt>
      <trkpt lat="43.23249" lon="6.40362">
        <ele>474.55</ele>
        <time>2012-11-18T13:32:17Z</time>
      </trkpt>
      <trkpt lat="43.23256" lon="6.4032">
        <ele>476.47</ele>
        <time>2012-11-18T13:32:54Z</time>
      </trkpt>
      <trkpt lat="43.23262" lon="6.40281">
        <ele>478.39</ele>
        <time>2012-11-18T13:33:28Z</time>
      </trkpt>
      <trkpt lat="43.23256" lon="6.40252">
        <ele>479.35</ele>
        <time>2012-11-18T13:33:53Z</time>
      </trkpt>
      <trkpt lat="43.23249" lon="6.40214">
        <ele>480.32</ele>
        <time>2012-11-18T13:34:28Z</time>
      </trkpt>
      <trkpt lat="43.23267" lon="6.40173">
        <ele>482.72</ele>
        <time>2012-11-18T13:35:04Z</time>
      </trkpt>
      <trkpt lat="43.23286" lon="6.40144">
        <ele>484.16</ele>
        <time>2012-11-18T13:35:32Z</time>
      </trkpt>
      <trkpt lat="43.23301" lon="6.40113">
        <ele>485.6</ele>
        <time>2012-11-18T13:36:00Z</time>
      </trkpt>
      <trkpt lat="43.23318" lon="6.40086">
        <ele>486.08</ele>
        <time>2012-11-18T13:36:26Z</time>
      </trkpt>
      <trkpt lat="43.23332" lon="6.40061">
        <ele>487.05</ele>
        <time>2012-11-18T13:36:49Z</time>
      </trkpt>
      <trkpt lat="43.23319" lon="6.40037">
        <ele>487.53</ele>
        <time>2012-11-18T13:37:12Z</time>
      </trkpt>
      <trkpt lat="43.23306" lon="6.40014">
        <ele>488.01</ele>
        <time>2012-11-18T13:37:33Z</time>
      </trkpt>
      <trkpt lat="43.23287" lon="6.39995">
        <ele>488.49</ele>
        <time>2012-11-18T13:37:57Z</time>
      </trkpt>
      <trkpt lat="43.23265" lon="6.39963">
        <ele>488.97</ele>
        <time>2012-11-18T13:38:25Z</time>
      </trkpt>
      <trkpt lat="43.23269" lon="6.3993">
        <ele>488.01</ele>
        <time>2012-11-18T13:38:52Z</time>
      </trkpt>
      <trkpt lat="43.23296" lon="6.39916">
        <ele>487.05</ele>
        <time>2012-11-18T13:39:19Z</time>
      </trkpt>
      <trkpt lat="43.23312" lon="6.39902">
        <ele>486.08</ele>
        <time>2012-11-18T13:40:18Z</time>
      </trkpt>
      <trkpt lat="43.23318" lon="6.39891">
        <ele>485.12</ele>
        <time>2012-11-18T13:43:07Z</time>
      </trkpt>
      <trkpt lat="43.23328" lon="6.39868">
        <ele>485.12</ele>
        <time>2012-11-18T13:43:47Z</time>
      </trkpt>
      <trkpt lat="43.2332" lon="6.3983">
        <ele>486.56</ele>
        <time>2012-11-18T13:44:14Z</time>
      </trkpt>
      <trkpt lat="43.2331" lon="6.39801">
        <ele>487.05</ele>
        <time>2012-11-18T13:44:34Z</time>
      </trkpt>
      <trkpt lat="43.233" lon="6.39777">
        <ele>487.05</ele>
        <time>2012-11-18T13:44:49Z</time>
      </trkpt>
      <trkpt lat="43.23283" lon="6.3976">
        <ele>488.01</ele>
        <time>2012-11-18T13:45:04Z</time>
      </trkpt>
      <trkpt lat="43.2328" lon="6.39738">
        <ele>488.01</ele>
        <time>2012-11-18T13:45:23Z</time>
      </trkpt>
      <trkpt lat="43.23287" lon="6.39709">
        <ele>488.97</ele>
        <time>2012-11-18T13:45:41Z</time>
      </trkpt>
      <trkpt lat="43.23287" lon="6.39682">
        <ele>489.45</ele>
        <time>2012-11-18T13:45:59Z</time>
      </trkpt>
      <trkpt lat="43.23284" lon="6.39649">
        <ele>490.41</ele>
        <time>2012-11-18T13:46:18Z</time>
      </trkpt>
      <trkpt lat="43.23278" lon="6.39622">
        <ele>490.89</ele>
        <time>2012-11-18T13:46:36Z</time>
      </trkpt>
      <trkpt lat="43.23264" lon="6.39604">
        <ele>491.37</ele>
        <time>2012-11-18T13:46:51Z</time>
      </trkpt>
      <trkpt lat="43.23247" lon="6.39585">
        <ele>491.85</ele>
        <time>2012-11-18T13:47:10Z</time>
      </trkpt>
      <trkpt lat="43.23232" lon="6.39559">
        <ele>493.29</ele>
        <time>2012-11-18T13:47:32Z</time>
      </trkpt>
      <trkpt lat="43.23211" lon="6.39539">
        <ele>494.74</ele>
        <time>2012-11-18T13:47:55Z</time>
      </trkpt>
      <trkpt lat="43.23188" lon="6.39524">
        <ele>495.7</ele>
        <time>2012-11-18T13:48:20Z</time>
      </trkpt>
      <trkpt lat="43.23174" lon="6.39495">
        <ele>496.66</ele>
        <time>2012-11-18T13:48:42Z</time>
      </trkpt>
      <trkpt lat="43.23167" lon="6.39465">
        <ele>497.14</ele>
        <time>2012-11-18T13:49:00Z</time>
      </trkpt>
      <trkpt lat="43.23156" lon="6.39428">
        <ele>498.1</ele>
        <time>2012-11-18T13:49:21Z</time>
      </trkpt>
      <trkpt lat="43.23143" lon="6.39409">
        <ele>498.58</ele>
        <time>2012-11-18T13:49:37Z</time>
      </trkpt>
      <trkpt lat="43.23126" lon="6.39392">
        <ele>499.06</ele>
        <time>2012-11-18T13:49:53Z</time>
      </trkpt>
      <trkpt lat="43.23106" lon="6.39383">
        <ele>500.02</ele>
        <time>2012-11-18T13:50:11Z</time>
      </trkpt>
      <trkpt lat="43.23093" lon="6.39365">
        <ele>500.5</ele>
        <time>2012-11-18T13:50:30Z</time>
      </trkpt>
      <trkpt lat="43.23097" lon="6.39332">
        <ele>500.98</ele>
        <time>2012-11-18T13:50:49Z</time>
      </trkpt>
      <trkpt lat="43.23105" lon="6.39298">
        <ele>501.46</ele>
        <time>2012-11-18T13:51:12Z</time>
      </trkpt>
      <trkpt lat="43.23099" lon="6.39267">
        <ele>501.95</ele>
        <time>2012-11-18T13:51:37Z</time>
      </trkpt>
      <trkpt lat="43.23092" lon="6.39229">
        <ele>501.95</ele>
        <time>2012-11-18T13:52:03Z</time>
      </trkpt>
      <trkpt lat="43.23087" lon="6.39204">
        <ele>502.91</ele>
        <time>2012-11-18T13:52:26Z</time>
      </trkpt>
      <trkpt lat="43.23084" lon="6.39169">
        <ele>504.35</ele>
        <time>2012-11-18T13:52:55Z</time>
      </trkpt>
      <trkpt lat="43.23078" lon="6.39149">
        <ele>503.87</ele>
        <time>2012-11-18T13:58:53Z</time>
      </trkpt>
      <trkpt lat="43.23078" lon="6.39125">
        <ele>503.39</ele>
        <time>2012-11-18T13:59:47Z</time>
      </trkpt>
      <trkpt lat="43.23069" lon="6.39094">
        <ele>503.39</ele>
        <time>2012-11-18T14:00:09Z</time>
      </trkpt>
      <trkpt lat="43.23064" lon="6.39066">
        <ele>502.43</ele>
        <time>2012-11-18T14:00:28Z</time>
      </trkpt>
      <trkpt lat="43.23054" lon="6.39038">
        <ele>500.5</ele>
        <time>2012-11-18T14:00:51Z</time>
      </trkpt>
      <trkpt lat="43.23051" lon="6.39007">
        <ele>499.06</ele>
        <time>2012-11-18T14:01:11Z</time>
      </trkpt>
      <trkpt lat="43.23046" lon="6.38976">
        <ele>498.1</ele>
        <time>2012-11-18T14:01:32Z</time>
      </trkpt>
      <trkpt lat="43.23042" lon="6.38949">
        <ele>496.66</ele>
        <time>2012-11-18T14:01:53Z</time>
      </trkpt>
      <trkpt lat="43.2304" lon="6.38917">
        <ele>494.74</ele>
        <time>2012-11-18T14:02:17Z</time>
      </trkpt>
      <trkpt lat="43.23036" lon="6.38884">
        <ele>493.29</ele>
        <time>2012-11-18T14:02:40Z</time>
      </trkpt>
      <trkpt lat="43.23036" lon="6.38852">
        <ele>491.85</ele>
        <time>2012-11-18T14:02:59Z</time>
      </trkpt>
      <trkpt lat="43.23028" lon="6.38825">
        <ele>490.41</ele>
        <time>2012-11-18T14:03:20Z</time>
      </trkpt>
      <trkpt lat="43.23013" lon="6.38801">
        <ele>489.45</ele>
        <time>2012-11-18T14:03:40Z</time>
      </trkpt>
      <trkpt lat="43.22999" lon="6.38782">
        <ele>488.97</ele>
        <time>2012-11-18T14:03:59Z</time>
      </trkpt>
      <trkpt lat="43.22983" lon="6.38759">
        <ele>488.97</ele>
        <time>2012-11-18T14:04:20Z</time>
      </trkpt>
      <trkpt lat="43.22967" lon="6.38736">
        <ele>488.49</ele>
        <time>2012-11-18T14:04:39Z</time>
      </trkpt>
      <trkpt lat="43.22955" lon="6.38713">
        <ele>488.97</ele>
        <time>2012-11-18T14:04:57Z</time>
      </trkpt>
      <trkpt lat="43.22952" lon="6.38687">
        <ele>487.53</ele>
        <time>2012-11-18T14:05:14Z</time>
      </trkpt>
      <trkpt lat="43.22949" lon="6.38658">
        <ele>485.6</ele>
        <time>2012-11-18T14:05:38Z</time>
      </trkpt>
      <trkpt lat="43.22946" lon="6.38624">
        <ele>483.68</ele>
        <time>2012-11-18T14:06:02Z</time>
      </trkpt>
      <trkpt lat="43.22944" lon="6.38594">
        <ele>482.24</ele>
        <time>2012-11-18T14:06:21Z</time>
      </trkpt>
      <trkpt lat="43.22942" lon="6.38564">
        <ele>481.76</ele>
        <time>2012-11-18T14:06:40Z</time>
      </trkpt>
      <trkpt lat="43.22933" lon="6.38534">
        <ele>481.28</ele>
        <time>2012-11-18T14:06:59Z</time>
      </trkpt>
      <trkpt lat="43.22923" lon="6.38506">
        <ele>479.35</ele>
        <time>2012-11-18T14:07:21Z</time>
      </trkpt>
      <trkpt lat="43.22908" lon="6.38481">
        <ele>477.91</ele>
        <time>2012-11-18T14:07:43Z</time>
      </trkpt>
      <trkpt lat="43.22894" lon="6.38458">
        <ele>476.95</ele>
        <time>2012-11-18T14:08:03Z</time>
      </trkpt>
      <trkpt lat="43.22888" lon="6.38433">
        <ele>475.51</ele>
        <time>2012-11-18T14:08:22Z</time>
      </trkpt>
      <trkpt lat="43.22901" lon="6.38415">
        <ele>474.55</ele>
        <time>2012-11-18T14:08:39Z</time>
      </trkpt>
      <trkpt lat="43.2292" lon="6.38412">
        <ele>473.11</ele>
        <time>2012-11-18T14:09:00Z</time>
      </trkpt>
      <trkpt lat="43.22933" lon="6.3839">
        <ele>471.18</ele>
        <time>2012-11-18T14:09:22Z</time>
      </trkpt>
      <trkpt lat="43.22941" lon="6.38367">
        <ele>469.74</ele>
        <time>2012-11-18T14:09:43Z</time>
      </trkpt>
      <trkpt lat="43.2295" lon="6.38348">
        <ele>467.34</ele>
        <time>2012-11-18T14:10:05Z</time>
      </trkpt>
      <trkpt lat="43.22962" lon="6.38322">
        <ele>465.42</ele>
        <time>2012-11-18T14:10:28Z</time>
      </trkpt>
      <trkpt lat="43.22957" lon="6.38293">
        <ele>462.53</ele>
        <time>2012-11-18T14:11:49Z</time>
      </trkpt>
      <trkpt lat="43.22945" lon="6.38283">
        <ele>459.17</ele>
        <time>2012-11-18T14:12:14Z</time>
      </trkpt>
      <trkpt lat="43.22933" lon="6.38268">
        <ele>453.88</ele>
        <time>2012-11-18T14:13:02Z</time>
      </trkpt>
      <trkpt lat="43.22926" lon="6.38251">
        <ele>450.03</ele>
        <time>2012-11-18T14:13:57Z</time>
      </trkpt>
      <trkpt lat="43.22929" lon="6.38217">
        <ele>449.07</ele>
        <time>2012-11-18T14:15:06Z</time>
      </trkpt>
      <trkpt lat="43.22938" lon="6.38196">
        <ele>448.59</ele>
        <time>2012-11-18T14:17:16Z</time>
      </trkpt>
      <trkpt lat="43.22929" lon="6.38204">
        <ele>449.55</ele>
        <time>2012-11-18T14:20:20Z</time>
      </trkpt>
      <trkpt lat="43.22916" lon="6.38188">
        <ele>444.27</ele>
        <time>2012-11-18T14:21:20Z</time>
      </trkpt>
      <trkpt lat="43.2291" lon="6.38154">
        <ele>439.94</ele>
        <time>2012-11-18T14:21:58Z</time>
      </trkpt>
      <trkpt lat="43.22892" lon="6.38119">
        <ele>435.13</ele>
        <time>2012-11-18T14:22:49Z</time>
      </trkpt>
      <trkpt lat="43.22895" lon="6.38082">
        <ele>426.48</ele>
        <time>2012-11-18T14:23:52Z</time>
      </trkpt>
      <trkpt lat="43.22898" lon="6.38054">
        <ele>416.87</ele>
        <time>2012-11-18T14:24:57Z</time>
      </trkpt>
      <trkpt lat="43.229" lon="6.38028">
        <ele>408.7</ele>
        <time>2012-11-18T14:25:40Z</time>
      </trkpt>
      <trkpt lat="43.22906" lon="6.37994">
        <ele>400.53</ele>
        <time>2012-11-18T14:26:25Z</time>
      </trkpt>
      <trkpt lat="43.22895" lon="6.37962">
        <ele>392.36</ele>
        <time>2012-11-18T14:27:08Z</time>
      </trkpt>
      <trkpt lat="43.22887" lon="6.37929">
        <ele>383.22</ele>
        <time>2012-11-18T14:27:54Z</time>
      </trkpt>
      <trkpt lat="43.22885" lon="6.379">
        <ele>374.57</ele>
        <time>2012-11-18T14:28:47Z</time>
      </trkpt>
      <trkpt lat="43.2288" lon="6.37873">
        <ele>365.44</ele>
        <time>2012-11-18T14:29:35Z</time>
      </trkpt>
      <trkpt lat="43.22867" lon="6.37849">
        <ele>357.75</ele>
        <time>2012-11-18T14:30:35Z</time>
      </trkpt>
      <trkpt lat="43.22854" lon="6.37822">
        <ele>348.62</ele>
        <time>2012-11-18T14:31:25Z</time>
      </trkpt>
      <trkpt lat="43.22837" lon="6.37786">
        <ele>340.44</ele>
        <time>2012-11-18T14:32:08Z</time>
      </trkpt>
      <trkpt lat="43.22819" lon="6.37747">
        <ele>335.16</ele>
        <time>2012-11-18T14:32:49Z</time>
      </trkpt>
      <trkpt lat="43.22819" lon="6.37733">
        <ele>332.75</ele>
        <time>2012-11-18T14:33:57Z</time>
      </trkpt>
      <trkpt lat="43.22838" lon="6.37737">
        <ele>332.75</ele>
        <time>2012-11-18T14:34:39Z</time>
      </trkpt>
      <trkpt lat="43.22809" lon="6.37735">
        <ele>331.79</ele>
        <time>2012-11-18T14:35:15Z</time>
      </trkpt>
      <trkpt lat="43.22791" lon="6.37757">
        <ele>331.79</ele>
        <time>2012-11-18T14:35:51Z</time>
      </trkpt>
      <trkpt lat="43.22777" lon="6.37779">
        <ele>332.27</ele>
        <time>2012-11-18T14:36:13Z</time>
      </trkpt>
      <trkpt lat="43.22762" lon="6.37795">
        <ele>330.35</ele>
        <time>2012-11-18T14:36:52Z</time>
      </trkpt>
      <trkpt lat="43.22747" lon="6.37801">
        <ele>330.83</ele>
        <time>2012-11-18T14:37:24Z</time>
      </trkpt>
      <trkpt lat="43.22741" lon="6.37768">
        <ele>331.79</ele>
        <time>2012-11-18T14:37:43Z</time>
      </trkpt>
      <trkpt lat="43.22762" lon="6.37732">
        <ele>332.75</ele>
        <time>2012-11-18T14:38:11Z</time>
      </trkpt>
      <trkpt lat="43.22773" lon="6.37702">
        <ele>333.71</ele>
        <time>2012-11-18T14:38:34Z</time>
      </trkpt>
      <trkpt lat="43.22781" lon="6.37669">
        <ele>333.71</ele>
        <time>2012-11-18T14:38:58Z</time>
      </trkpt>
      <trkpt lat="43.22792" lon="6.37638">
        <ele>333.71</ele>
        <time>2012-11-18T14:39:20Z</time>
      </trkpt>
      <trkpt lat="43.22797" lon="6.37612">
        <ele>333.71</ele>
        <time>2012-11-18T14:39:38Z</time>
      </trkpt>
      <trkpt lat="43.22802" lon="6.37581">
        <ele>333.23</ele>
        <time>2012-11-18T14:39:55Z</time>
      </trkpt>
      <trkpt lat="43.22814" lon="6.37557">
        <ele>334.2</ele>
        <time>2012-11-18T14:40:12Z</time>
      </trkpt>
      <trkpt lat="43.2282" lon="6.37532">
        <ele>334.2</ele>
        <time>2012-11-18T14:40:30Z</time>
      </trkpt>
      <trkpt lat="43.22822" lon="6.37509">
        <ele>334.68</ele>
        <time>2012-11-18T14:40:48Z</time>
      </trkpt>
      <trkpt lat="43.22824" lon="6.37484">
        <ele>335.16</ele>
        <time>2012-11-18T14:41:06Z</time>
      </trkpt>
      <trkpt lat="43.22832" lon="6.37456">
        <ele>335.64</ele>
        <time>2012-11-18T14:41:26Z</time>
      </trkpt>
      <trkpt lat="43.22848" lon="6.3744">
        <ele>336.12</ele>
        <time>2012-11-18T14:41:44Z</time>
      </trkpt>
      <trkpt lat="43.22854" lon="6.37414">
        <ele>336.12</ele>
        <time>2012-11-18T14:42:02Z</time>
      </trkpt>
      <trkpt lat="43.22859" lon="6.37394">
        <ele>337.08</ele>
        <time>2012-11-18T14:42:22Z</time>
      </trkpt>
      <trkpt lat="43.2287" lon="6.37369">
        <ele>337.08</ele>
        <time>2012-11-18T14:42:36Z</time>
      </trkpt>
      <trkpt lat="43.22876" lon="6.37348">
        <ele>337.56</ele>
        <time>2012-11-18T14:42:52Z</time>
      </trkpt>
      <trkpt lat="43.22887" lon="6.37329">
        <ele>337.56</ele>
        <time>2012-11-18T14:43:06Z</time>
      </trkpt>
      <trkpt lat="43.2289" lon="6.37307">
        <ele>338.04</ele>
        <time>2012-11-18T14:43:21Z</time>
      </trkpt>
      <trkpt lat="43.22875" lon="6.37276">
        <ele>338.52</ele>
        <time>2012-11-18T14:43:40Z</time>
      </trkpt>
      <trkpt lat="43.22874" lon="6.3725">
        <ele>338.04</ele>
        <time>2012-11-18T14:43:55Z</time>
      </trkpt>
      <trkpt lat="43.2289" lon="6.37228">
        <ele>338.52</ele>
        <time>2012-11-18T14:44:15Z</time>
      </trkpt>
      <trkpt lat="43.22894" lon="6.37199">
        <ele>339.96</ele>
        <time>2012-11-18T14:44:35Z</time>
      </trkpt>
      <trkpt lat="43.22892" lon="6.3717">
        <ele>340.44</ele>
        <time>2012-11-18T14:44:56Z</time>
      </trkpt>
      <trkpt lat="43.22887" lon="6.37143">
        <ele>339.96</ele>
        <time>2012-11-18T14:45:17Z</time>
      </trkpt>
      <trkpt lat="43.22905" lon="6.37125">
        <ele>340.92</ele>
        <time>2012-11-18T14:45:44Z</time>
      </trkpt>
      <trkpt lat="43.22918" lon="6.37097">
        <ele>341.41</ele>
        <time>2012-11-18T14:46:03Z</time>
      </trkpt>
      <trkpt lat="43.22931" lon="6.37073">
        <ele>341.89</ele>
        <time>2012-11-18T14:46:25Z</time>
      </trkpt>
      <trkpt lat="43.22945" lon="6.3705">
        <ele>342.37</ele>
        <time>2012-11-18T14:46:46Z</time>
      </trkpt>
      <trkpt lat="43.22951" lon="6.37017">
        <ele>342.85</ele>
        <time>2012-11-18T14:47:07Z</time>
      </trkpt>
      <trkpt lat="43.22969" lon="6.36997">
        <ele>343.81</ele>
        <time>2012-11-18T14:47:28Z</time>
      </trkpt>
      <trkpt lat="43.23004" lon="6.36981">
        <ele>345.25</ele>
        <time>2012-11-18T14:48:03Z</time>
      </trkpt>
      <trkpt lat="43.2302" lon="6.3696">
        <ele>345.73</ele>
        <time>2012-11-18T14:48:31Z</time>
      </trkpt>
      <trkpt lat="43.23041" lon="6.36934">
        <ele>346.69</ele>
        <time>2012-11-18T14:49:09Z</time>
      </trkpt>
      <trkpt lat="43.23058" lon="6.36904">
        <ele>347.17</ele>
        <time>2012-11-18T14:49:34Z</time>
      </trkpt>
      <trkpt lat="43.23071" lon="6.36875">
        <ele>347.17</ele>
        <time>2012-11-18T14:49:55Z</time>
      </trkpt>
      <trkpt lat="43.23095" lon="6.3686">
        <ele>347.65</ele>
        <time>2012-11-18T14:50:24Z</time>
      </trkpt>
      <trkpt lat="43.23106" lon="6.36841">
        <ele>347.65</ele>
        <time>2012-11-18T14:50:50Z</time>
      </trkpt>
      <trkpt lat="43.23122" lon="6.36822">
        <ele>348.62</ele>
        <time>2012-11-18T14:51:18Z</time>
      </trkpt>
      <trkpt lat="43.23144" lon="6.36801">
        <ele>349.1</ele>
        <time>2012-11-18T14:51:43Z</time>
      </trkpt>
      <trkpt lat="43.23169" lon="6.36772">
        <ele>349.58</ele>
        <time>2012-11-18T14:52:14Z</time>
      </trkpt>
      <trkpt lat="43.23194" lon="6.3676">
        <ele>350.54</ele>
        <time>2012-11-18T14:52:36Z</time>
      </trkpt>
      <trkpt lat="43.23215" lon="6.36739">
        <ele>351.02</ele>
        <time>2012-11-18T14:52:59Z</time>
      </trkpt>
      <trkpt lat="43.23227" lon="6.36711">
        <ele>351.5</ele>
        <time>2012-11-18T14:53:18Z</time>
      </trkpt>
      <trkpt lat="43.23232" lon="6.36683">
        <ele>351.98</ele>
        <time>2012-11-18T14:53:39Z</time>
      </trkpt>
      <trkpt lat="43.23244" lon="6.36657">
        <ele>353.42</ele>
        <time>2012-11-18T14:54:00Z</time>
      </trkpt>
      <trkpt lat="43.23258" lon="6.36635">
        <ele>353.9</ele>
        <time>2012-11-18T14:54:17Z</time>
      </trkpt>
      <trkpt lat="43.23267" lon="6.36602">
        <ele>354.38</ele>
        <time>2012-11-18T14:54:41Z</time>
      </trkpt>
      <trkpt lat="43.23285" lon="6.36572">
        <ele>353.9</ele>
        <time>2012-11-18T14:55:01Z</time>
      </trkpt>
      <trkpt lat="43.23305" lon="6.36549">
        <ele>354.86</ele>
        <time>2012-11-18T14:55:24Z</time>
      </trkpt>
      <trkpt lat="43.23321" lon="6.36522">
        <ele>355.34</ele>
        <time>2012-11-18T14:55:43Z</time>
      </trkpt>
      <trkpt lat="43.23327" lon="6.36496">
        <ele>355.34</ele>
        <time>2012-11-18T14:56:01Z</time>
      </trkpt>
      <trkpt lat="43.23323" lon="6.36471">
        <ele>353.42</ele>
        <time>2012-11-18T14:57:24Z</time>
      </trkpt>
      <trkpt lat="43.23305" lon="6.3646">
        <ele>351.02</ele>
        <time>2012-11-18T14:57:42Z</time>
      </trkpt>
      <trkpt lat="43.23285" lon="6.36461">
        <ele>349.58</ele>
        <time>2012-11-18T14:58:01Z</time>
      </trkpt>
      <trkpt lat="43.23262" lon="6.36467">
        <ele>348.13</ele>
        <time>2012-11-18T14:58:17Z</time>
      </trkpt>
      <trkpt lat="43.2325" lon="6.3649">
        <ele>345.73</ele>
        <time>2012-11-18T14:58:36Z</time>
      </trkpt>
      <trkpt lat="43.23233" lon="6.36507">
        <ele>344.77</ele>
        <time>2012-11-18T14:58:51Z</time>
      </trkpt>
      <trkpt lat="43.23212" lon="6.36513">
        <ele>342.37</ele>
        <time>2012-11-18T14:59:09Z</time>
      </trkpt>
      <trkpt lat="43.23198" lon="6.365">
        <ele>339.96</ele>
        <time>2012-11-18T14:59:33Z</time>
      </trkpt>
      <trkpt lat="43.23223" lon="6.36481">
        <ele>338.04</ele>
        <time>2012-11-18T14:59:57Z</time>
      </trkpt>
      <trkpt lat="43.23233" lon="6.36458">
        <ele>337.08</ele>
        <time>2012-11-18T15:00:15Z</time>
      </trkpt>
      <trkpt lat="43.2324" lon="6.36433">
        <ele>335.16</ele>
        <time>2012-11-18T15:00:32Z</time>
      </trkpt>
      <trkpt lat="43.23254" lon="6.36416">
        <ele>333.71</ele>
        <time>2012-11-18T15:00:54Z</time>
      </trkpt>
      <trkpt lat="43.23265" lon="6.364">
        <ele>331.79</ele>
        <time>2012-11-18T15:01:31Z</time>
      </trkpt>
      <trkpt lat="43.23293" lon="6.36384">
        <ele>328.91</ele>
        <time>2012-11-18T15:02:00Z</time>
      </trkpt>
      <trkpt lat="43.23294" lon="6.36369">
        <ele>326.5</ele>
        <time>2012-11-18T15:02:22Z</time>
      </trkpt>
      <trkpt lat="43.23273" lon="6.36367">
        <ele>324.58</ele>
        <time>2012-11-18T15:02:40Z</time>
      </trkpt>
      <trkpt lat="43.23255" lon="6.36364">
        <ele>323.14</ele>
        <time>2012-11-18T15:02:55Z</time>
      </trkpt>
      <trkpt lat="43.23246" lon="6.36352">
        <ele>321.22</ele>
        <time>2012-11-18T15:03:11Z</time>
      </trkpt>
      <trkpt lat="43.2326" lon="6.36329">
        <ele>318.81</ele>
        <time>2012-11-18T15:03:43Z</time>
      </trkpt>
      <trkpt lat="43.23296" lon="6.36327">
        <ele>315.45</ele>
        <time>2012-11-18T15:04:12Z</time>
      </trkpt>
      <trkpt lat="43.23331" lon="6.36322">
        <ele>311.12</ele>
        <time>2012-11-18T15:04:43Z</time>
      </trkpt>
      <trkpt lat="43.23358" lon="6.36317">
        <ele>308.24</ele>
        <time>2012-11-18T15:05:11Z</time>
      </trkpt>
      <trkpt lat="43.23377" lon="6.36323">
        <ele>306.8</ele>
        <time>2012-11-18T15:05:31Z</time>
      </trkpt>
      <trkpt lat="43.23399" lon="6.36327">
        <ele>303.91</ele>
        <time>2012-11-18T15:05:56Z</time>
      </trkpt>
      <trkpt lat="43.23408" lon="6.36338">
        <ele>302.95</ele>
        <time>2012-11-18T15:07:43Z</time>
      </trkpt>
      <trkpt lat="43.23417" lon="6.36341">
        <ele>302.47</ele>
        <time>2012-11-18T15:08:52Z</time>
      </trkpt>
      <trkpt lat="43.23417" lon="6.36349">
        <ele>302.47</ele>
        <time>2012-11-18T15:10:22Z</time>
      </trkpt>
    </trkseg>
  </trk>
</gpx>